sensor_id;sensor_type;location;lat;lon;timestamp;P1;durP1;ratioP1;P2;durP2;ratioP2
75280;SDS011;63874;47.230;39.620;2023-02-01T00:00:20;1.70;;;0.75;;
75280;SDS011;63874;47.230;39.620;2023-02-01T00:02:46;2.60;;;0.90;;
75280;SDS011;63874;47.230;39.620;2023-02-01T00:07:38;1.80;;;0.82;;
75280;SDS011;63874;47.230;39.620;2023-02-01T00:10:04;2.53;;;0.77;;
75280;SDS011;63874;47.230;39.620;2023-02-01T00:12:31;2.78;;;0.90;;
75280;SDS011;63874;47.230;39.620;2023-02-01T00:14:57;2.05;;;0.88;;
75280;SDS011;63874;47.230;39.620;2023-02-01T00:19:49;2.90;;;1.25;;
75280;SDS011;63874;47.230;39.620;2023-02-01T00:22:14;3.05;;;1.30;;
75280;SDS011;63874;47.230;39.620;2023-02-01T00:24:40;2.75;;;1.85;;
75280;SDS011;63874;47.230;39.620;2023-02-01T00:27:06;2.90;;;0.80;;
75280;SDS011;63874;47.230;39.620;2023-02-01T00:29:32;3.28;;;1.25;;
75280;SDS011;63874;47.230;39.620;2023-02-01T00:31:58;2.97;;;0.90;;
75280;SDS011;63874;47.230;39.620;2023-02-01T00:34:24;2.20;;;1.02;;
75280;SDS011;63874;47.230;39.620;2023-02-01T00:36:50;2.45;;;0.98;;
75280;SDS011;63874;47.230;39.620;2023-02-01T00:39:16;1.30;;;0.55;;
75280;SDS011;63874;47.230;39.620;2023-02-01T00:41:42;2.25;;;0.80;;
75280;SDS011;63874;47.230;39.620;2023-02-01T00:44:08;2.17;;;0.68;;
75280;SDS011;63874;47.230;39.620;2023-02-01T00:49:00;2.40;;;1.15;;
75280;SDS011;63874;47.230;39.620;2023-02-01T00:51:27;2.20;;;0.95;;
75280;SDS011;63874;47.230;39.620;2023-02-01T00:53:54;2.28;;;1.02;;
75280;SDS011;63874;47.230;39.620;2023-02-01T00:56:20;2.78;;;1.35;;
75280;SDS011;63874;47.230;39.620;2023-02-01T00:58:46;2.83;;;1.58;;
75280;SDS011;63874;47.230;39.620;2023-02-01T01:03:44;1.95;;;0.85;;
75280;SDS011;63874;47.230;39.620;2023-02-01T01:06:14;2.50;;;1.00;;
75280;SDS011;63874;47.230;39.620;2023-02-01T01:08:41;2.33;;;1.13;;
75280;SDS011;63874;47.230;39.620;2023-02-01T01:11:09;3.00;;;1.95;;
75280;SDS011;63874;47.230;39.620;2023-02-01T01:13:37;2.13;;;0.73;;
75280;SDS011;63874;47.230;39.620;2023-02-01T01:16:04;2.33;;;0.98;;
75280;SDS011;63874;47.230;39.620;2023-02-01T01:18:31;2.88;;;1.35;;
75280;SDS011;63874;47.230;39.620;2023-02-01T01:20:58;2.67;;;0.95;;
75280;SDS011;63874;47.230;39.620;2023-02-01T01:23:24;1.48;;;0.68;;
75280;SDS011;63874;47.230;39.620;2023-02-01T01:25:50;1.73;;;0.60;;
75280;SDS011;63874;47.230;39.620;2023-02-01T01:28:16;3.30;;;1.63;;
75280;SDS011;63874;47.230;39.620;2023-02-01T01:30:42;2.40;;;1.13;;
75280;SDS011;63874;47.230;39.620;2023-02-01T01:33:09;3.55;;;1.90;;
75280;SDS011;63874;47.230;39.620;2023-02-01T01:38:01;4.53;;;2.10;;
75280;SDS011;63874;47.230;39.620;2023-02-01T01:40:28;3.83;;;1.60;;
75280;SDS011;63874;47.230;39.620;2023-02-01T01:42:54;3.42;;;1.58;;
75280;SDS011;63874;47.230;39.620;2023-02-01T01:45:31;3.95;;;1.70;;
75280;SDS011;63874;47.230;39.620;2023-02-01T01:50:36;4.65;;;2.15;;
75280;SDS011;63874;47.230;39.620;2023-02-01T01:53:18;3.65;;;1.77;;
75280;SDS011;63874;47.230;39.620;2023-02-01T01:55:47;5.50;;;2.67;;
75280;SDS011;63874;47.230;39.620;2023-02-01T01:58:21;5.55;;;2.38;;
75280;SDS011;63874;47.230;39.620;2023-02-01T02:00:50;3.20;;;1.65;;
75280;SDS011;63874;47.230;39.620;2023-02-01T02:03:22;5.20;;;1.60;;
75280;SDS011;63874;47.230;39.620;2023-02-01T02:05:53;5.50;;;2.60;;
75280;SDS011;63874;47.230;39.620;2023-02-01T02:08:23;5.50;;;3.47;;
75280;SDS011;63874;47.230;39.620;2023-02-01T02:10:52;6.07;;;2.65;;
75280;SDS011;63874;47.230;39.620;2023-02-01T02:26:53;3.03;;;1.10;;
75280;SDS011;63874;47.230;39.620;2023-02-01T02:29:53;2.53;;;1.25;;
75280;SDS011;63874;47.230;39.620;2023-02-01T02:32:45;4.72;;;1.60;;
75280;SDS011;63874;47.230;39.620;2023-02-01T02:38:15;4.00;;;1.55;;
75280;SDS011;63874;47.230;39.620;2023-02-01T02:40:46;3.92;;;1.83;;
75280;SDS011;63874;47.230;39.620;2023-02-01T02:43:24;1.77;;;0.75;;
75280;SDS011;63874;47.230;39.620;2023-02-01T02:51:49;5.15;;;2.53;;
75280;SDS011;63874;47.230;39.620;2023-02-01T02:54:39;1.25;;;0.50;;
75280;SDS011;63874;47.230;39.620;2023-02-01T02:57:13;3.33;;;1.30;;
75280;SDS011;63874;47.230;39.620;2023-02-01T03:00:02;4.00;;;2.03;;
75280;SDS011;63874;47.230;39.620;2023-02-01T03:02:50;2.42;;;1.08;;
75280;SDS011;63874;47.230;39.620;2023-02-01T03:05:36;4.00;;;2.22;;
75280;SDS011;63874;47.230;39.620;2023-02-01T03:13:24;4.43;;;2.20;;
75280;SDS011;63874;47.230;39.620;2023-02-01T03:15:57;4.68;;;2.38;;
75280;SDS011;63874;47.230;39.620;2023-02-01T03:18:26;3.78;;;1.90;;
75280;SDS011;63874;47.230;39.620;2023-02-01T03:21:03;1.85;;;1.08;;
75280;SDS011;63874;47.230;39.620;2023-02-01T03:23:34;4.18;;;2.20;;
75280;SDS011;63874;47.230;39.620;2023-02-01T03:26:04;3.67;;;1.98;;
75280;SDS011;63874;47.230;39.620;2023-02-01T03:28:34;4.38;;;2.53;;
75280;SDS011;63874;47.230;39.620;2023-02-01T03:31:02;3.97;;;2.17;;
75280;SDS011;63874;47.230;39.620;2023-02-01T03:38:40;4.35;;;1.77;;
75280;SDS011;63874;47.230;39.620;2023-02-01T03:44:20;3.72;;;1.73;;
75280;SDS011;63874;47.230;39.620;2023-02-01T03:47:05;2.53;;;1.58;;
75280;SDS011;63874;47.230;39.620;2023-02-01T03:50:06;3.42;;;1.67;;
75280;SDS011;63874;47.230;39.620;2023-02-01T03:55:08;3.70;;;1.02;;
75280;SDS011;63874;47.230;39.620;2023-02-01T03:57:39;2.08;;;1.02;;
75280;SDS011;63874;47.230;39.620;2023-02-01T04:00:16;3.13;;;1.35;;
75280;SDS011;63874;47.230;39.620;2023-02-01T04:02:45;3.60;;;1.15;;
75280;SDS011;63874;47.230;39.620;2023-02-01T04:07:44;2.30;;;1.02;;
75280;SDS011;63874;47.230;39.620;2023-02-01T04:12:36;4.30;;;1.98;;
75280;SDS011;63874;47.230;39.620;2023-02-01T04:17:28;3.17;;;1.38;;
75280;SDS011;63874;47.230;39.620;2023-02-01T04:22:20;2.30;;;1.05;;
75280;SDS011;63874;47.230;39.620;2023-02-01T04:24:46;2.80;;;0.95;;
75280;SDS011;63874;47.230;39.620;2023-02-01T04:27:12;3.30;;;1.63;;
75280;SDS011;63874;47.230;39.620;2023-02-01T04:29:38;2.88;;;0.82;;
75280;SDS011;63874;47.230;39.620;2023-02-01T04:34:30;3.53;;;1.50;;
75280;SDS011;63874;47.230;39.620;2023-02-01T04:36:56;3.13;;;1.17;;
75280;SDS011;63874;47.230;39.620;2023-02-01T04:39:22;3.03;;;0.98;;
75280;SDS011;63874;47.230;39.620;2023-02-01T04:44:14;2.85;;;1.20;;
75280;SDS011;63874;47.230;39.620;2023-02-01T04:46:42;3.17;;;1.20;;
75280;SDS011;63874;47.230;39.620;2023-02-01T04:49:09;3.83;;;2.10;;
75280;SDS011;63874;47.230;39.620;2023-02-01T04:51:36;3.10;;;1.48;;
75280;SDS011;63874;47.230;39.620;2023-02-01T04:54:02;3.03;;;1.27;;
75280;SDS011;63874;47.230;39.620;2023-02-01T04:56:28;3.25;;;1.27;;
75280;SDS011;63874;47.230;39.620;2023-02-01T05:01:21;3.75;;;1.80;;
75280;SDS011;63874;47.230;39.620;2023-02-01T05:03:47;3.72;;;1.33;;
75280;SDS011;63874;47.230;39.620;2023-02-01T05:06:13;3.42;;;1.58;;
75280;SDS011;63874;47.230;39.620;2023-02-01T05:11:05;1.80;;;0.60;;
75280;SDS011;63874;47.230;39.620;2023-02-01T05:13:31;1.75;;;0.50;;
75280;SDS011;63874;47.230;39.620;2023-02-01T05:16:15;0.93;;;0.32;;
75280;SDS011;63874;47.230;39.620;2023-02-01T05:18:42;2.03;;;0.77;;
75280;SDS011;63874;47.230;39.620;2023-02-01T05:23:33;2.53;;;0.82;;
75280;SDS011;63874;47.230;39.620;2023-02-01T05:26:19;2.40;;;1.17;;
75280;SDS011;63874;47.230;39.620;2023-02-01T05:31:11;1.45;;;0.30;;
75280;SDS011;63874;47.230;39.620;2023-02-01T05:33:37;1.92;;;0.98;;
75280;SDS011;63874;47.230;39.620;2023-02-01T05:36:03;1.23;;;0.47;;
75280;SDS011;63874;47.230;39.620;2023-02-01T05:38:29;2.20;;;0.68;;
75280;SDS011;63874;47.230;39.620;2023-02-01T05:43:21;1.98;;;0.73;;
75280;SDS011;63874;47.230;39.620;2023-02-01T05:45:47;2.00;;;1.23;;
75280;SDS011;63874;47.230;39.620;2023-02-01T05:50:39;1.70;;;0.30;;
75280;SDS011;63874;47.230;39.620;2023-02-01T05:53:07;1.80;;;0.60;;
75280;SDS011;63874;47.230;39.620;2023-02-01T05:55:33;1.70;;;0.30;;
75280;SDS011;63874;47.230;39.620;2023-02-01T05:57:59;0.70;;;0.43;;
75280;SDS011;63874;47.230;39.620;2023-02-01T06:00:25;1.00;;;0.55;;
75280;SDS011;63874;47.230;39.620;2023-02-01T06:02:51;1.40;;;0.52;;
75280;SDS011;63874;47.230;39.620;2023-02-01T06:05:17;1.92;;;0.63;;
75280;SDS011;63874;47.230;39.620;2023-02-01T06:07:43;1.15;;;0.40;;
75280;SDS011;63874;47.230;39.620;2023-02-01T06:12:35;1.83;;;0.60;;
75280;SDS011;63874;47.230;39.620;2023-02-01T06:15:01;2.30;;;1.05;;
75280;SDS011;63874;47.230;39.620;2023-02-01T06:17:27;1.98;;;0.55;;
75280;SDS011;63874;47.230;39.620;2023-02-01T06:19:53;2.08;;;0.68;;
75280;SDS011;63874;47.230;39.620;2023-02-01T06:22:19;1.65;;;0.50;;
75280;SDS011;63874;47.230;39.620;2023-02-01T06:24:45;1.38;;;0.38;;
75280;SDS011;63874;47.230;39.620;2023-02-01T06:27:10;1.70;;;0.60;;
75280;SDS011;63874;47.230;39.620;2023-02-01T06:29:38;1.75;;;0.68;;
75280;SDS011;63874;47.230;39.620;2023-02-01T06:32:04;2.22;;;1.10;;
75280;SDS011;63874;47.230;39.620;2023-02-01T06:34:30;1.55;;;0.63;;
75280;SDS011;63874;47.230;39.620;2023-02-01T06:39:22;1.42;;;0.55;;
75280;SDS011;63874;47.230;39.620;2023-02-01T06:41:48;1.73;;;0.47;;
75280;SDS011;63874;47.230;39.620;2023-02-01T06:44:14;1.30;;;0.50;;
75280;SDS011;63874;47.230;39.620;2023-02-01T06:46:41;0.82;;;0.30;;
75280;SDS011;63874;47.230;39.620;2023-02-01T06:49:07;1.55;;;0.60;;
75280;SDS011;63874;47.230;39.620;2023-02-01T06:51:33;2.25;;;1.15;;
75280;SDS011;63874;47.230;39.620;2023-02-01T06:53:59;1.33;;;0.55;;
75280;SDS011;63874;47.230;39.620;2023-02-01T06:56:26;1.85;;;0.75;;
75280;SDS011;63874;47.230;39.620;2023-02-01T06:58:52;1.23;;;0.65;;
75280;SDS011;63874;47.230;39.620;2023-02-01T07:01:18;1.58;;;0.73;;
75280;SDS011;63874;47.230;39.620;2023-02-01T07:03:48;1.63;;;0.55;;
75280;SDS011;63874;47.230;39.620;2023-02-01T07:06:16;1.25;;;0.73;;
75280;SDS011;63874;47.230;39.620;2023-02-01T07:08:43;1.20;;;0.57;;
75280;SDS011;63874;47.230;39.620;2023-02-01T07:11:10;1.33;;;0.55;;
75280;SDS011;63874;47.230;39.620;2023-02-01T07:13:38;1.15;;;0.60;;
75280;SDS011;63874;47.230;39.620;2023-02-01T07:16:05;1.15;;;0.43;;
75280;SDS011;63874;47.230;39.620;2023-02-01T07:18:34;1.75;;;1.25;;
75280;SDS011;63874;47.230;39.620;2023-02-01T07:21:00;1.58;;;0.57;;
75280;SDS011;63874;47.230;39.620;2023-02-01T07:23:26;1.77;;;0.85;;
75280;SDS011;63874;47.230;39.620;2023-02-01T07:25:56;1.63;;;0.60;;
75280;SDS011;63874;47.230;39.620;2023-02-01T07:28:24;1.75;;;0.68;;
75280;SDS011;63874;47.230;39.620;2023-02-01T07:30:51;1.52;;;0.38;;
75280;SDS011;63874;47.230;39.620;2023-02-01T07:33:20;1.40;;;0.65;;
75280;SDS011;63874;47.230;39.620;2023-02-01T07:35:48;1.67;;;0.73;;
75280;SDS011;63874;47.230;39.620;2023-02-01T07:38:15;1.85;;;0.65;;
75280;SDS011;63874;47.230;39.620;2023-02-01T07:40:41;1.75;;;0.82;;
75280;SDS011;63874;47.230;39.620;2023-02-01T07:43:07;1.73;;;1.02;;
75280;SDS011;63874;47.230;39.620;2023-02-01T07:45:34;1.65;;;0.75;;
75280;SDS011;63874;47.230;39.620;2023-02-01T07:48:01;1.40;;;0.47;;
75280;SDS011;63874;47.230;39.620;2023-02-01T07:50:27;1.67;;;0.77;;
75280;SDS011;63874;47.230;39.620;2023-02-01T07:52:54;1.00;;;0.40;;
75280;SDS011;63874;47.230;39.620;2023-02-01T07:55:20;1.90;;;0.68;;
75280;SDS011;63874;47.230;39.620;2023-02-01T07:57:46;2.47;;;1.17;;
75280;SDS011;63874;47.230;39.620;2023-02-01T08:00:13;1.98;;;1.02;;
75280;SDS011;63874;47.230;39.620;2023-02-01T08:02:58;1.65;;;0.35;;
75280;SDS011;63874;47.230;39.620;2023-02-01T08:05:24;1.75;;;0.68;;
75280;SDS011;63874;47.230;39.620;2023-02-01T08:07:50;2.10;;;1.15;;
75280;SDS011;63874;47.230;39.620;2023-02-01T08:10:17;1.55;;;0.95;;
75280;SDS011;63874;47.230;39.620;2023-02-01T08:12:43;1.50;;;0.50;;
75280;SDS011;63874;47.230;39.620;2023-02-01T08:15:13;1.80;;;0.60;;
75280;SDS011;63874;47.230;39.620;2023-02-01T08:17:45;1.90;;;0.85;;
75280;SDS011;63874;47.230;39.620;2023-02-01T08:20:13;1.48;;;0.40;;
75280;SDS011;63874;47.230;39.620;2023-02-01T08:22:39;2.13;;;0.90;;
75280;SDS011;63874;47.230;39.620;2023-02-01T08:25:05;1.50;;;0.73;;
75280;SDS011;63874;47.230;39.620;2023-02-01T08:27:35;1.55;;;0.38;;
75280;SDS011;63874;47.230;39.620;2023-02-01T08:30:01;1.23;;;0.65;;
75280;SDS011;63874;47.230;39.620;2023-02-01T08:32:28;1.10;;;0.73;;
75280;SDS011;63874;47.230;39.620;2023-02-01T08:34:54;0.95;;;0.55;;
75280;SDS011;63874;47.230;39.620;2023-02-01T08:37:20;1.15;;;0.30;;
75280;SDS011;63874;47.230;39.620;2023-02-01T08:39:45;0.95;;;0.60;;
75280;SDS011;63874;47.230;39.620;2023-02-01T08:42:12;0.88;;;0.30;;
75280;SDS011;63874;47.230;39.620;2023-02-01T08:44:56;1.15;;;0.50;;
75280;SDS011;63874;47.230;39.620;2023-02-01T08:47:22;0.93;;;0.43;;
75280;SDS011;63874;47.230;39.620;2023-02-01T08:49:48;1.27;;;0.50;;
75280;SDS011;63874;47.230;39.620;2023-02-01T08:52:14;0.77;;;0.30;;
75280;SDS011;63874;47.230;39.620;2023-02-01T08:54:40;1.33;;;0.63;;
75280;SDS011;63874;47.230;39.620;2023-02-01T08:57:07;1.63;;;0.88;;
75280;SDS011;63874;47.230;39.620;2023-02-01T08:59:34;1.15;;;0.70;;
75280;SDS011;63874;47.230;39.620;2023-02-01T09:02:00;1.67;;;1.00;;
75280;SDS011;63874;47.230;39.620;2023-02-01T09:04:26;1.52;;;0.75;;
75280;SDS011;63874;47.230;39.620;2023-02-01T09:06:52;1.88;;;0.93;;
75280;SDS011;63874;47.230;39.620;2023-02-01T09:09:23;2.33;;;0.80;;
75280;SDS011;63874;47.230;39.620;2023-02-01T09:11:49;1.70;;;1.05;;
75280;SDS011;63874;47.230;39.620;2023-02-01T09:14:16;1.42;;;0.80;;
75280;SDS011;63874;47.230;39.620;2023-02-01T09:16:42;1.30;;;0.73;;
75280;SDS011;63874;47.230;39.620;2023-02-01T09:21:34;0.80;;;0.43;;
75280;SDS011;63874;47.230;39.620;2023-02-01T09:24:00;1.38;;;0.73;;
75280;SDS011;63874;47.230;39.620;2023-02-01T09:26:26;1.50;;;0.75;;
75280;SDS011;63874;47.230;39.620;2023-02-01T09:28:52;0.40;;;0.20;;
75280;SDS011;63874;47.230;39.620;2023-02-01T09:33:44;1.95;;;0.77;;
75280;SDS011;63874;47.230;39.620;2023-02-01T09:38:36;1.73;;;0.70;;
75280;SDS011;63874;47.230;39.620;2023-02-01T09:41:06;0.80;;;0.52;;
75280;SDS011;63874;47.230;39.620;2023-02-01T09:46:42;1.80;;;0.52;;
75280;SDS011;63874;47.230;39.620;2023-02-01T09:51:53;1.70;;;0.70;;
75280;SDS011;63874;47.230;39.620;2023-02-01T09:54:25;1.58;;;0.63;;
75280;SDS011;63874;47.230;39.620;2023-02-01T09:57:06;2.70;;;1.00;;
75280;SDS011;63874;47.230;39.620;2023-02-01T09:59:49;1.55;;;0.60;;
75280;SDS011;63874;47.230;39.620;2023-02-01T10:02:20;2.05;;;0.75;;
75280;SDS011;63874;47.230;39.620;2023-02-01T10:04:48;1.70;;;0.80;;
75280;SDS011;63874;47.230;39.620;2023-02-01T10:10:02;2.17;;;0.88;;
75280;SDS011;63874;47.230;39.620;2023-02-01T10:12:43;1.98;;;0.60;;
75280;SDS011;63874;47.230;39.620;2023-02-01T10:15:24;1.52;;;0.40;;
75280;SDS011;63874;47.230;39.620;2023-02-01T10:27:14;2.55;;;0.93;;
75280;SDS011;63874;47.230;39.620;2023-02-01T10:29:55;1.15;;;0.45;;
75280;SDS011;63874;47.230;39.620;2023-02-01T10:32:27;1.48;;;0.52;;
75280;SDS011;63874;47.230;39.620;2023-02-01T10:35:01;2.03;;;0.77;;
75280;SDS011;63874;47.230;39.620;2023-02-01T10:37:35;1.80;;;0.52;;
75280;SDS011;63874;47.230;39.620;2023-02-01T10:42:39;2.85;;;1.15;;
75280;SDS011;63874;47.230;39.620;2023-02-01T10:45:05;2.67;;;0.93;;
75280;SDS011;63874;47.230;39.620;2023-02-01T10:47:32;3.35;;;1.05;;
75280;SDS011;63874;47.230;39.620;2023-02-01T10:55:25;2.55;;;0.88;;
75280;SDS011;63874;47.230;39.620;2023-02-01T10:57:56;1.27;;;0.50;;
75280;SDS011;63874;47.230;39.620;2023-02-01T11:00:24;1.60;;;0.60;;
75280;SDS011;63874;47.230;39.620;2023-02-01T11:02:50;1.95;;;0.75;;
75280;SDS011;63874;47.230;39.620;2023-02-01T11:05:16;1.50;;;0.82;;
75280;SDS011;63874;47.230;39.620;2023-02-01T11:07:48;2.67;;;1.30;;
75280;SDS011;63874;47.230;39.620;2023-02-01T11:13:11;2.55;;;1.75;;
75280;SDS011;63874;47.230;39.620;2023-02-01T11:15:44;3.22;;;1.30;;
75280;SDS011;63874;47.230;39.620;2023-02-01T11:18:17;2.60;;;1.35;;
75280;SDS011;63874;47.230;39.620;2023-02-01T11:20:45;2.08;;;0.90;;
75280;SDS011;63874;47.230;39.620;2023-02-01T11:23:47;2.60;;;0.80;;
75280;SDS011;63874;47.230;39.620;2023-02-01T11:28:35;2.70;;;1.83;;
75280;SDS011;63874;47.230;39.620;2023-02-01T11:31:10;2.40;;;1.02;;
75280;SDS011;63874;47.230;39.620;2023-02-01T11:33:47;2.10;;;0.70;;
75280;SDS011;63874;47.230;39.620;2023-02-01T11:36:17;2.22;;;0.73;;
75280;SDS011;63874;47.230;39.620;2023-02-01T11:38:52;2.10;;;1.02;;
75280;SDS011;63874;47.230;39.620;2023-02-01T11:41:34;2.78;;;1.35;;
75280;SDS011;63874;47.230;39.620;2023-02-01T11:44:15;1.73;;;0.70;;
75280;SDS011;63874;47.230;39.620;2023-02-01T11:46:47;2.38;;;1.20;;
75280;SDS011;63874;47.230;39.620;2023-02-01T12:17:06;2.53;;;1.02;;
75280;SDS011;63874;47.230;39.620;2023-02-01T12:22:29;2.08;;;0.75;;
75280;SDS011;63874;47.230;39.620;2023-02-01T12:25:07;2.10;;;0.63;;
75280;SDS011;63874;47.230;39.620;2023-02-01T12:51:19;2.72;;;1.23;;
75280;SDS011;63874;47.230;39.620;2023-02-01T12:54:02;3.20;;;0.75;;
75280;SDS011;63874;47.230;39.620;2023-02-01T12:57:03;2.38;;;0.80;;
75280;SDS011;63874;47.230;39.620;2023-02-01T13:02:12;2.33;;;0.70;;
75280;SDS011;63874;47.230;39.620;2023-02-01T13:04:58;1.98;;;0.75;;
75280;SDS011;63874;47.230;39.620;2023-02-01T13:07:37;2.05;;;0.82;;
75280;SDS011;63874;47.230;39.620;2023-02-01T13:10:16;2.80;;;1.55;;
75280;SDS011;63874;47.230;39.620;2023-02-01T13:12:51;2.63;;;1.17;;
75280;SDS011;63874;47.230;39.620;2023-02-01T13:16:06;3.13;;;1.00;;
75280;SDS011;63874;47.230;39.620;2023-02-01T13:18:39;2.35;;;1.13;;
75280;SDS011;63874;47.230;39.620;2023-02-01T13:21:10;1.88;;;0.70;;
75280;SDS011;63874;47.230;39.620;2023-02-01T13:23:43;2.78;;;0.98;;
75280;SDS011;63874;47.230;39.620;2023-02-01T13:26:12;1.88;;;1.25;;
75280;SDS011;63874;47.230;39.620;2023-02-01T13:42:21;2.75;;;1.27;;
75280;SDS011;63874;47.230;39.620;2023-02-01T13:44:51;2.85;;;1.58;;
75280;SDS011;63874;47.230;39.620;2023-02-01T13:47:29;3.28;;;0.80;;
75280;SDS011;63874;47.230;39.620;2023-02-01T13:49:58;3.50;;;0.88;;
75280;SDS011;63874;47.230;39.620;2023-02-01T13:55:03;3.17;;;1.42;;
75280;SDS011;63874;47.230;39.620;2023-02-01T13:57:39;2.58;;;0.95;;
75280;SDS011;63874;47.230;39.620;2023-02-01T14:00:23;2.13;;;0.90;;
75280;SDS011;63874;47.230;39.620;2023-02-01T14:23:45;2.90;;;1.65;;
75280;SDS011;63874;47.230;39.620;2023-02-01T14:27:15;3.92;;;1.92;;
75280;SDS011;63874;47.230;39.620;2023-02-01T14:31:47;3.03;;;1.33;;
75280;SDS011;63874;47.230;39.620;2023-02-01T15:06:47;2.58;;;0.95;;
75280;SDS011;63874;47.230;39.620;2023-02-01T15:09:37;3.80;;;1.52;;
75280;SDS011;63874;47.230;39.620;2023-02-01T15:14:37;3.67;;;1.75;;
75280;SDS011;63874;47.230;39.620;2023-02-01T15:20:00;3.67;;;1.58;;
75280;SDS011;63874;47.230;39.620;2023-02-01T15:22:36;3.20;;;1.33;;
75280;SDS011;63874;47.230;39.620;2023-02-01T15:27:29;3.72;;;1.83;;
75280;SDS011;63874;47.230;39.620;2023-02-01T15:30:12;3.13;;;1.50;;
75280;SDS011;63874;47.230;39.620;2023-02-01T15:32:44;3.35;;;1.58;;
75280;SDS011;63874;47.230;39.620;2023-02-01T15:41:47;2.72;;;1.45;;
75280;SDS011;63874;47.230;39.620;2023-02-01T15:43:44;3.15;;;1.65;;
75280;SDS011;63874;47.230;39.620;2023-02-01T15:46:15;3.30;;;1.40;;
75280;SDS011;63874;47.230;39.620;2023-02-01T15:48:55;3.33;;;1.70;;
75280;SDS011;63874;47.230;39.620;2023-02-01T15:53:52;3.28;;;1.75;;
75280;SDS011;63874;47.230;39.620;2023-02-01T15:56:24;3.70;;;2.28;;
75280;SDS011;63874;47.230;39.620;2023-02-01T15:58:56;5.05;;;2.03;;
75280;SDS011;63874;47.230;39.620;2023-02-01T16:01:24;3.13;;;1.42;;
75280;SDS011;63874;47.230;39.620;2023-02-01T16:04:01;2.50;;;1.48;;
75280;SDS011;63874;47.230;39.620;2023-02-01T16:06:36;2.42;;;1.08;;
75280;SDS011;63874;47.230;39.620;2023-02-01T16:09:13;3.78;;;1.85;;
75280;SDS011;63874;47.230;39.620;2023-02-01T16:12:02;3.53;;;1.85;;
75280;SDS011;63874;47.230;39.620;2023-02-01T16:14:29;3.08;;;1.40;;
75280;SDS011;63874;47.230;39.620;2023-02-01T16:16:56;3.10;;;1.48;;
75280;SDS011;63874;47.230;39.620;2023-02-01T16:19:23;2.72;;;1.27;;
75280;SDS011;63874;47.230;39.620;2023-02-01T16:21:53;2.45;;;1.10;;
75280;SDS011;63874;47.230;39.620;2023-02-01T16:24:23;3.50;;;0.90;;
75280;SDS011;63874;47.230;39.620;2023-02-01T16:26:51;2.20;;;1.15;;
75280;SDS011;63874;47.230;39.620;2023-02-01T16:29:17;2.78;;;1.50;;
75280;SDS011;63874;47.230;39.620;2023-02-01T16:34:11;3.55;;;0.98;;
75280;SDS011;63874;47.230;39.620;2023-02-01T16:36:42;2.58;;;1.00;;
75280;SDS011;63874;47.230;39.620;2023-02-01T16:39:12;1.98;;;0.65;;
75280;SDS011;63874;47.230;39.620;2023-02-01T16:41:39;2.78;;;1.33;;
75280;SDS011;63874;47.230;39.620;2023-02-01T16:44:05;2.53;;;0.90;;
75280;SDS011;63874;47.230;39.620;2023-02-01T16:46:32;2.42;;;1.40;;
75280;SDS011;63874;47.230;39.620;2023-02-01T16:49:04;2.95;;;1.20;;
75280;SDS011;63874;47.230;39.620;2023-02-01T16:51:31;2.30;;;1.27;;
75280;SDS011;63874;47.230;39.620;2023-02-01T16:53:58;3.30;;;1.98;;
75280;SDS011;63874;47.230;39.620;2023-02-01T16:56:28;1.50;;;0.65;;
75280;SDS011;63874;47.230;39.620;2023-02-01T16:58:56;2.78;;;1.30;;
75280;SDS011;63874;47.230;39.620;2023-02-01T17:01:22;2.00;;;1.05;;
75280;SDS011;63874;47.230;39.620;2023-02-01T17:03:49;2.55;;;1.15;;
75280;SDS011;63874;47.230;39.620;2023-02-01T17:06:16;3.95;;;1.23;;
75280;SDS011;63874;47.230;39.620;2023-02-01T17:08:46;1.92;;;0.88;;
75280;SDS011;63874;47.230;39.620;2023-02-01T17:11:15;2.80;;;1.10;;
75280;SDS011;63874;47.230;39.620;2023-02-01T17:21:45;3.05;;;1.13;;
75280;SDS011;63874;47.230;39.620;2023-02-01T17:24:15;3.25;;;1.05;;
75280;SDS011;63874;47.230;39.620;2023-02-01T17:26:42;2.00;;;0.70;;
75280;SDS011;63874;47.230;39.620;2023-02-01T17:29:09;2.33;;;1.17;;
75280;SDS011;63874;47.230;39.620;2023-02-01T17:31:38;3.60;;;1.58;;
75280;SDS011;63874;47.230;39.620;2023-02-01T17:34:06;2.35;;;0.88;;
75280;SDS011;63874;47.230;39.620;2023-02-01T17:36:33;3.45;;;1.08;;
75280;SDS011;63874;47.230;39.620;2023-02-01T17:39:01;2.42;;;1.20;;
75280;SDS011;63874;47.230;39.620;2023-02-01T17:41:27;2.42;;;1.13;;
75280;SDS011;63874;47.230;39.620;2023-02-01T17:46:19;2.03;;;1.08;;
75280;SDS011;63874;47.230;39.620;2023-02-01T17:48:50;1.98;;;0.70;;
75280;SDS011;63874;47.230;39.620;2023-02-01T17:53:43;1.52;;;0.95;;
75280;SDS011;63874;47.230;39.620;2023-02-01T17:56:12;2.72;;;1.15;;
75280;SDS011;63874;47.230;39.620;2023-02-01T17:58:40;2.72;;;0.82;;
75280;SDS011;63874;47.230;39.620;2023-02-01T18:01:08;1.23;;;0.43;;
75280;SDS011;63874;47.230;39.620;2023-02-01T18:03:39;1.80;;;0.57;;
75280;SDS011;63874;47.230;39.620;2023-02-01T18:06:10;2.25;;;1.00;;
75280;SDS011;63874;47.230;39.620;2023-02-01T18:08:38;1.88;;;0.82;;
75280;SDS011;63874;47.230;39.620;2023-02-01T18:11:07;0.93;;;0.40;;
75280;SDS011;63874;47.230;39.620;2023-02-01T18:13:36;1.98;;;0.85;;
75280;SDS011;63874;47.230;39.620;2023-02-01T18:18:28;2.00;;;0.70;;
75280;SDS011;63874;47.230;39.620;2023-02-01T18:20:57;2.17;;;0.82;;
75280;SDS011;63874;47.230;39.620;2023-02-01T18:23:24;2.85;;;1.35;;
75280;SDS011;63874;47.230;39.620;2023-02-01T18:28:17;2.83;;;1.15;;
75280;SDS011;63874;47.230;39.620;2023-02-01T18:30:45;2.80;;;1.45;;
75280;SDS011;63874;47.230;39.620;2023-02-01T18:33:14;2.67;;;0.93;;
75280;SDS011;63874;47.230;39.620;2023-02-01T18:35:41;2.58;;;1.17;;
75280;SDS011;63874;47.230;39.620;2023-02-01T18:38:08;2.45;;;1.05;;
75280;SDS011;63874;47.230;39.620;2023-02-01T18:40:36;2.05;;;0.82;;
75280;SDS011;63874;47.230;39.620;2023-02-01T18:43:14;1.95;;;1.02;;
75280;SDS011;63874;47.230;39.620;2023-02-01T18:45:41;2.33;;;1.27;;
75280;SDS011;63874;47.230;39.620;2023-02-01T18:48:11;2.70;;;0.77;;
75280;SDS011;63874;47.230;39.620;2023-02-01T18:50:39;2.72;;;1.25;;
75280;SDS011;63874;47.230;39.620;2023-02-01T18:53:11;2.80;;;1.25;;
75280;SDS011;63874;47.230;39.620;2023-02-01T18:55:38;2.55;;;1.33;;
75280;SDS011;63874;47.230;39.620;2023-02-01T18:58:05;3.50;;;1.45;;
75280;SDS011;63874;47.230;39.620;2023-02-01T19:00:32;2.67;;;0.98;;
75280;SDS011;63874;47.230;39.620;2023-02-01T19:02:59;2.15;;;0.88;;
75280;SDS011;63874;47.230;39.620;2023-02-01T19:05:25;2.35;;;0.98;;
75280;SDS011;63874;47.230;39.620;2023-02-01T19:07:51;2.75;;;1.33;;
75280;SDS011;63874;47.230;39.620;2023-02-01T19:10:19;3.33;;;1.10;;
75280;SDS011;63874;47.230;39.620;2023-02-01T19:12:47;3.08;;;1.35;;
75280;SDS011;63874;47.230;39.620;2023-02-01T19:15:15;2.47;;;0.85;;
75280;SDS011;63874;47.230;39.620;2023-02-01T19:17:42;1.98;;;1.15;;
75280;SDS011;63874;47.230;39.620;2023-02-01T19:20:13;2.47;;;0.95;;
75280;SDS011;63874;47.230;39.620;2023-02-01T19:22:44;2.33;;;1.05;;
75280;SDS011;63874;47.230;39.620;2023-02-01T19:25:15;3.25;;;1.30;;
75280;SDS011;63874;47.230;39.620;2023-02-01T19:27:42;2.72;;;0.98;;
75280;SDS011;63874;47.230;39.620;2023-02-01T19:32:36;2.90;;;0.98;;
75280;SDS011;63874;47.230;39.620;2023-02-01T19:35:03;3.30;;;1.02;;
75280;SDS011;63874;47.230;39.620;2023-02-01T19:37:29;2.63;;;1.33;;
75280;SDS011;63874;47.230;39.620;2023-02-01T19:39:55;1.83;;;1.67;;
75280;SDS011;63874;47.230;39.620;2023-02-01T19:42:25;3.30;;;1.80;;